LELN

Leon Airport

León, Spain
TAF LELN 171700Z 1718/1803 08006KT 9999 SCT020 BKN025
Issued Valid From Valid To
Nov-17 @ 17:00 UTC
(5 hours ago)
Nov-17 @ 18:00 UTC
(4 hours ago)
Nov-18 @ 03:00 UTC
(in 5 hours)
Nov-17 @ 18:00 to Nov-18 @ 03:00
TAF LELN 171700Z 1718/1803 08006KT 9999 SCT020 BKN025
Wind Visibility Clouds
80° at 6 knots 10,000+ meters
  • Scattered at 2,000' AGL
  • Broken at 2,500' AGL
TAF LELN 171700Z 1718/1803 08006KT 9999 SCT020 BKN025
Issued Nov-17 @ 17:00 UTC
(5 hours ago)
Valid From Nov-17 @ 18:00 UTC
(4 hours ago)
Valid To Nov-18 @ 03:00 UTC
(in 5 hours)
Nov-17 @ 18:00 - Nov-18 @ 03:00
Wind Visibility
80° at 6 knots 10,000+ meters
Clouds
  • Scattered at 2,000' AGL
  • Broken at 2,500' AGL